Time;durP1;ratioP1;P1;durP2;ratioP2;P2;SDS_P1;SDS_P2;PMS_P1;PMS_P2;Temp;Humidity;BMP_temperature;BMP_pressure;BME280_temperature;BME280_humidity;BME280_pressure;Samples;Min_cycle;Max_cycle;Signal;HPM_P1;HPM_P2
2022/05/19 00:01:11;;;;;;;8.95;2.65;;;;;;;43.30;7.57;100888.75;4967863;28;20031;-64
2022/05/19 00:03:38;;;;;;;12.88;2.90;;;;;;;42.90;7.77;100889.13;4962937;28;20058;-64
2022/05/19 00:06:07;;;;;;;12.70;2.45;;;;;;;42.59;7.78;100880.88;4960024;28;20424;-65
2022/05/19 00:08:34;;;;;;;10.30;2.60;;;;;;;40.23;9.04;100886.59;4968687;28;20089;-65
2022/05/19 00:11:07;;;;;;;12.82;2.50;;;;;;;41.75;8.14;100881.50;4956429;28;20023;-65
2022/05/19 00:13:34;;;;;;;11.63;2.75;;;;;;;42.45;7.91;100878.66;4945225;29;20114;-64
2022/05/19 00:16:01;;;;;;;12.55;2.33;;;;;;;41.77;8.50;100873.25;4950944;28;20085;-64
2022/05/19 00:18:28;;;;;;;9.02;2.13;;;;;;;38.52;9.80;100888.84;4953381;28;20038;-64
2022/05/19 00:20:55;;;;;;;15.85;2.85;;;;;;;37.39;10.90;100876.66;4952706;28;20026;-63
2022/05/19 00:23:22;;;;;;;8.23;2.40;;;;;;;36.81;11.61;100891.47;4951148;28;20578;-64
2022/05/19 00:25:48;;;;;;;9.45;2.47;;;;;;;38.54;10.37;100875.78;4917183;29;20040;-63
2022/05/19 00:28:16;;;;;;;13.77;2.40;;;;;;;39.55;9.20;100874.06;4932816;29;20039;-63
2022/05/19 00:30:43;;;;;;;13.40;2.78;;;;;;;39.69;9.89;100867.88;4969315;28;20038;-64
2022/05/19 00:33:11;;;;;;;9.88;2.50;;;;;;;40.11;9.22;100865.47;4958546;28;20015;-63
2022/05/19 00:35:40;;;;;;;10.23;2.45;;;;;;;39.89;9.80;100864.69;4963368;28;20086;-62
2022/05/19 00:38:07;;;;;;;8.98;2.30;;;;;;;39.90;9.86;100862.63;4966574;28;20473;-62
2022/05/19 00:40:35;;;;;;;8.25;2.80;;;;;;;37.95;10.64;100867.84;4956703;28;20079;-61
2022/05/19 00:43:02;;;;;;;13.35;4.00;;;;;;;37.38;11.58;100863.75;4967757;28;20023;-61
2022/05/19 00:45:41;;;;;;;10.90;3.67;;;;;;;36.77;11.93;100865.22;4960315;28;20043;-61
2022/05/19 00:48:45;;;;;;;13.55;3.22;;;;;;;37.42;11.67;100864.44;4936869;29;20042;-61
2022/05/19 00:51:15;;;;;;;11.63;2.55;;;;;;;38.45;10.78;100863.50;4910080;29;20047;-62
2022/05/19 00:53:54;;;;;;;10.80;2.42;;;;;;;38.97;10.23;100851.69;4957804;28;20073;-62
2022/05/19 00:56:44;;;;;;;26.13;3.25;;;;;;;39.13;10.39;100860.06;4958209;28;20554;-61
2022/05/19 00:59:20;;;;;;;15.30;2.40;;;;;;;38.81;10.38;100861.16;4942698;28;20055;-63
2022/05/19 01:01:46;;;;;;;6.00;1.77;;;;;;;38.82;10.80;100861.94;4955318;28;20148;-62
2022/05/19 01:04:18;;;;;;;14.10;2.45;;;;;;;38.25;10.53;100860.88;4957824;28;20118;-61
2022/05/19 01:06:48;;;;;;;11.93;2.50;;;;;;;36.97;11.50;100855.84;4959137;28;20054;-62
2022/05/19 01:09:16;;;;;;;21.02;2.78;;;;;;;36.62;11.65;100858.28;4958504;28;20066;-63
2022/05/19 01:11:44;;;;;;;13.23;2.30;;;;;;;37.26;11.96;100855.94;4957983;28;20034;-62
2022/05/19 01:14:11;;;;;;;8.70;2.38;;;;;;;37.57;10.97;100850.66;4957827;28;20102;-62
2022/05/19 01:16:38;;;;;;;12.07;2.55;;;;;;;37.71;11.12;100855.94;4958980;28;20027;-62
2022/05/19 01:19:22;;;;;;;13.05;2.10;;;;;;;36.34;11.47;100856.13;4920248;28;20535;-61
2022/05/19 01:21:54;;;;;;;13.48;2.30;;;;;;;35.65;11.60;100853.88;4955085;28;20070;-62
2022/05/19 01:24:34;;;;;;;9.23;2.30;;;;;;;35.99;11.75;100844.34;4940632;29;20451;-61
2022/05/19 01:27:03;;;;;;;14.18;2.40;;;;;;;36.20;11.19;100849.53;4958466;28;20070;-62
2022/05/19 01:29:29;;;;;;;10.95;2.33;;;;;;;35.38;12.04;100839.06;4955376;28;20026;-62
2022/05/19 01:32:00;;;;;;;8.13;2.08;;;;;;;35.04;12.60;100848.53;4957606;28;20070;-63
2022/05/19 01:34:33;;;;;;;9.90;2.60;;;;;;;34.81;12.83;100840.78;4955054;28;20031;-61
2022/05/19 01:37:00;;;;;;;11.55;2.45;;;;;;;34.85;12.83;100840.78;4956527;28;20042;-63
2022/05/19 01:39:35;;;;;;;10.48;2.65;;;;;;;34.83;13.28;100843.19;4938801;29;20078;-61
2022/05/19 01:42:36;;;;;;;12.70;2.60;;;;;;;34.88;13.18;100844.78;4956683;28;20371;-62
2022/05/19 01:45:35;;;;;;;7.68;2.20;;;;;;;34.73;13.08;100847.00;4937569;28;20047;-61
2022/05/19 01:48:39;;;;;;;11.40;1.95;;;;;;;34.63;13.49;100842.31;4871614;29;20048;-61
2022/05/19 01:51:17;;;;;;;11.52;2.35;;;;;;;34.58;13.52;100848.44;4954559;28;20117;-61
2022/05/19 01:54:01;;;;;;;10.65;2.47;;;;;;;34.58;13.32;100854.09;4954406;28;20035;-61
2022/05/19 01:56:52;;;;;;;13.10;2.45;;;;;;;34.80;13.06;100839.19;4954857;28;20059;-60
2022/05/19 01:59:28;;;;;;;19.38;2.55;;;;;;;34.82;13.18;100848.03;4955752;28;20161;-61
2022/05/19 02:02:04;;;;;;;14.20;2.42;;;;;;;34.63;13.14;100834.63;4955651;28;20039;-62
2022/05/19 02:04:55;;;;;;;8.05;2.30;;;;;;;34.49;13.85;100843.34;4938677;28;20138;-63
2022/05/19 02:07:22;;;;;;;11.15;2.30;;;;;;;34.47;13.40;100843.78;4939397;29;20036;-61
2022/05/19 02:10:11;;;;;;;14.07;2.53;;;;;;;34.05;13.89;100853.56;4939561;29;20470;-61
2022/05/19 02:12:38;;;;;;;13.82;2.63;;;;;;;33.93;14.03;100857.78;4956877;28;20070;-61
2022/05/19 02:15:11;;;;;;;19.35;2.80;;;;;;;33.77;14.30;100851.09;4953970;28;20023;-62
2022/05/19 02:17:37;;;;;;;10.75;2.67;;;;;;;33.68;14.57;100851.59;4922836;28;20032;-61
2022/05/19 02:20:11;;;;;;;13.70;2.55;;;;;;;33.49;14.51;100855.03;4956517;28;20473;-60
2022/05/19 02:22:42;;;;;;;13.03;2.77;;;;;;;33.33;14.35;100853.56;4957581;28;20031;-60
2022/05/19 02:25:34;;;;;;;8.50;2.70;;;;;;;33.22;14.68;100852.84;4953849;28;20090;-61
2022/05/19 02:28:10;;;;;;;14.88;2.42;;;;;;;33.08;14.79;100850.16;4956900;28;20042;-60
2022/05/19 02:30:40;;;;;;;14.85;2.97;;;;;;;32.80;15.25;100844.72;4957299;28;20057;-61
2022/05/19 02:33:07;;;;;;;12.65;2.92;;;;;;;32.62;15.06;100854.09;4953724;28;20094;-61
2022/05/19 02:35:35;;;;;;;12.23;2.72;;;;;;;32.56;15.59;100850.13;4958885;28;20038;-61
2022/05/19 02:38:02;;;;;;;24.70;3.90;;;;;;;32.55;15.80;100862.59;4956398;28;20359;-61
2022/05/19 02:40:32;;;;;;;40.53;4.32;;;;;;;32.55;15.53;100861.78;4938889;29;20028;-60
2022/05/19 02:43:00;;;;;;;24.52;4.18;;;;;;;32.29;15.54;100866.75;4955281;28;20090;-61
2022/05/19 02:45:27;;;;;;;20.60;3.40;;;;;;;32.23;16.71;100868.38;4953600;28;20098;-62
2022/05/19 02:47:54;;;;;;;22.27;4.20;;;;;;;32.13;16.84;100866.41;4955785;28;20023;-61
2022/05/19 02:50:23;;;;;;;17.02;3.72;;;;;;;32.01;16.42;100866.88;4955556;28;20576;-60
2022/05/19 02:52:50;;;;;;;24.98;3.90;;;;;;;31.68;16.90;100868.94;4970859;28;20026;-62
2022/05/19 02:55:18;;;;;;;27.80;3.97;;;;;;;31.52;17.72;100871.41;4956098;28;20035;-61
2022/05/19 02:57:47;;;;;;;23.38;3.90;;;;;;;31.49;17.90;100875.81;4958286;28;20023;-61
2022/05/19 03:00:20;;;;;;;25.55;3.85;;;;;;;31.52;18.27;100871.41;4952028;28;20137;-61
2022/05/19 03:02:47;;;;;;;24.80;4.60;;;;;;;31.47;17.48;100878.22;4957816;28;20031;-60
2022/05/19 03:05:21;;;;;;;27.67;3.80;;;;;;;31.16;17.92;100885.44;4959925;28;20398;-61
2022/05/19 03:07:49;;;;;;;21.83;4.13;;;;;;;30.83;18.07;100891.44;4953527;28;20039;-61
2022/05/19 03:10:16;;;;;;;18.67;3.42;;;;;;;30.52;18.57;100895.75;4955060;28;20031;-61
2022/05/19 03:12:43;;;;;;;19.23;3.92;;;;;;;30.47;19.05;100896.13;4956510;28;20039;-61
2022/05/19 03:15:10;;;;;;;27.23;4.35;;;;;;;30.56;18.60;100902.19;4955259;28;20023;-61
2022/05/19 03:17:38;;;;;;;29.60;4.25;;;;;;;30.40;18.83;100896.13;4953726;28;20035;-61
2022/05/19 03:20:07;;;;;;;26.88;4.88;;;;;;;30.26;18.87;100897.69;4956346;28;20019;-63
2022/05/19 03:22:34;;;;;;;36.05;4.57;;;;;;;30.16;19.28;100906.84;4954385;28;20038;-62
2022/05/19 03:25:01;;;;;;;45.38;4.65;;;;;;;29.99;19.41;100907.56;4957693;28;20050;-62
2022/05/19 03:27:28;;;;;;;42.05;4.75;;;;;;;29.84;19.60;100911.47;4957453;28;20027;-61
2022/05/19 03:29:54;;;;;;;32.80;4.75;;;;;;;29.77;19.83;100909.41;4956166;28;20031;-63
2022/05/19 03:32:21;;;;;;;31.63;5.00;;;;;;;29.61;20.02;100911.72;4938672;29;20090;-62
2022/05/19 03:34:48;;;;;;;29.08;4.60;;;;;;;29.50;20.79;100908.84;4957601;28;20027;-62
2022/05/19 03:37:17;;;;;;;23.38;3.60;;;;;;;29.42;21.22;100910.75;4938459;29;20402;-62
2022/05/19 03:39:44;;;;;;;32.42;4.60;;;;;;;29.42;20.72;100912.75;4956019;28;20096;-63
2022/05/19 03:42:11;;;;;;;32.70;5.10;;;;;;;29.50;21.21;100914.44;4956135;28;20458;-62
2022/05/19 03:44:37;;;;;;;42.30;5.95;;;;;;;29.58;20.79;100913.28;4956897;28;20395;-62
2022/05/19 03:47:05;;;;;;;28.52;5.25;;;;;;;29.30;20.75;100915.88;4956828;28;20095;-63
2022/05/19 03:49:33;;;;;;;37.42;6.13;;;;;;;29.06;21.35;100920.84;4953553;28;20071;-62
2022/05/19 03:52:00;;;;;;;29.17;6.47;;;;;;;28.89;21.37;100918.69;4956262;28;20031;-64
2022/05/19 03:54:27;;;;;;;37.40;6.95;;;;;;;28.79;21.53;100917.38;4955482;28;20039;-62
2022/05/19 03:56:54;;;;;;;41.83;6.93;;;;;;;28.71;21.64;100914.88;4957376;28;20551;-61
2022/05/19 03:59:21;;;;;;;31.40;6.50;;;;;;;28.63;22.00;100916.00;4956904;28;20046;-62
2022/05/19 04:01:48;;;;;;;26.15;6.00;;;;;;;28.67;21.80;100928.00;4955786;28;20023;-63
2022/05/19 04:04:15;;;;;;;39.35;6.28;;;;;;;28.68;22.06;100924.03;4955369;28;20043;-62
2022/05/19 04:06:42;;;;;;;30.52;6.10;;;;;;;28.61;21.92;100919.19;4957232;28;20034;-63
2022/05/19 04:09:09;;;;;;;24.02;5.53;;;;;;;28.49;21.88;100923.03;4922541;28;20389;-62
2022/05/19 04:11:35;;;;;;;35.35;6.40;;;;;;;28.45;22.25;100926.97;4955797;28;20058;-62
2022/05/19 04:14:02;;;;;;;28.58;5.88;;;;;;;28.42;22.29;100925.75;4949035;28;20038;-62
2022/05/19 04:16:29;;;;;;;24.08;5.78;;;;;;;28.41;22.46;100926.13;4956857;28;20067;-61
2022/05/19 04:18:56;;;;;;;26.45;5.82;;;;;;;28.32;22.45;100923.63;4952141;28;20066;-61
2022/05/19 04:21:22;;;;;;;29.20;5.97;;;;;;;28.29;22.74;100930.78;4954639;28;20359;-61
2022/05/19 04:23:49;;;;;;;30.85;5.50;;;;;;;28.23;22.96;100923.88;4940027;29;20037;-61
2022/05/19 04:26:16;;;;;;;33.58;6.15;;;;;;;28.24;22.61;100939.47;4957768;28;20038;-61
2022/05/19 04:28:43;;;;;;;28.25;5.82;;;;;;;28.15;23.00;100941.72;4944679;28;20031;-62
2022/05/19 04:31:09;;;;;;;31.27;5.50;;;;;;;28.05;22.97;100939.63;4963165;28;20085;-62
2022/05/19 04:33:36;;;;;;;24.23;5.03;;;;;;;27.93;23.42;100943.44;4967840;28;20040;-62
2022/05/19 04:36:05;;;;;;;51.20;6.55;;;;;;;27.97;23.40;100947.09;4970148;28;20026;-61
2022/05/19 04:38:31;;;;;;;30.45;6.18;;;;;;;27.92;24.13;100950.22;4960543;28;20035;-61
2022/05/19 04:41:02;;;;;;;51.47;6.70;;;;;;;27.93;23.97;100949.03;4972926;28;20086;-61
2022/05/19 04:43:29;;;;;;;38.67;6.28;;;;;;;27.92;23.35;100950.22;4965206;28;20042;-61
2022/05/19 04:45:56;;;;;;;30.08;4.88;;;;;;;27.87;23.21;100949.75;4964658;28;20039;-60
2022/05/19 04:48:24;;;;;;;30.02;5.68;;;;;;;27.80;23.63;100946.81;4965911;28;20042;-61
2022/05/19 04:50:53;;;;;;;52.00;6.45;;;;;;;27.71;23.41;100951.88;4973029;28;20398;-61
2022/05/19 04:53:21;;;;;;;39.83;6.80;;;;;;;27.62;23.95;100947.31;4964038;28;20034;-62
2022/05/19 04:55:48;;;;;;;42.45;6.47;;;;;;;27.63;24.08;100951.75;4965681;28;20019;-63
2022/05/19 04:58:15;;;;;;;36.30;6.85;;;;;;;27.67;24.13;100957.41;4958294;28;20039;-64
2022/05/19 05:00:42;;;;;;;28.73;6.15;;;;;;;27.43;24.41;100957.78;4959529;28;20015;-62
2022/05/19 05:03:09;;;;;;;31.77;6.18;;;;;;;27.32;24.79;100955.63;4937146;29;20160;-63
2022/05/19 05:05:36;;;;;;;32.05;6.40;;;;;;;27.27;24.98;100960.69;4939512;29;20170;-63
2022/05/19 05:08:03;;;;;;;32.97;6.13;;;;;;;27.23;25.01;100960.63;4939605;29;20039;-63
2022/05/19 05:10:30;;;;;;;30.40;7.45;;;;;;;27.23;24.75;100965.41;4939514;29;20382;-63
2022/05/19 05:13:03;;;;;;;34.80;9.50;;;;;;;27.28;24.64;100963.13;4942664;28;20032;-63
2022/05/19 05:15:30;;;;;;;40.50;14.45;;;;;;;27.63;23.72;100970.50;4936761;29;20107;-62
2022/05/19 05:17:57;;;;;;;47.90;17.98;;;;;;;27.81;23.24;100960.41;4946094;29;20043;-63
2022/05/19 05:20:24;;;;;;;49.90;17.70;;;;;;;27.47;23.99;100959.47;4952827;29;20106;-63
2022/05/19 05:22:50;;;;;;;56.40;22.77;;;;;;;27.26;24.30;100956.28;4939551;29;20063;-63
2022/05/19 05:25:17;;;;;;;62.97;25.17;;;;;;;27.21;24.48;100965.78;4948937;29;20036;-62
2022/05/19 05:27:44;;;;;;;67.47;23.88;;;;;;;27.40;24.07;100953.75;4940302;29;20026;-63
2022/05/19 05:30:12;;;;;;;78.72;24.67;;;;;;;27.37;24.20;100952.53;4937102;29;20051;-63
2022/05/19 05:32:40;;;;;;;68.25;22.80;;;;;;;27.28;24.38;100956.72;4953031;29;20585;-64
2022/05/19 05:35:08;;;;;;;72.82;23.33;;;;;;;27.08;24.64;100955.97;4955083;28;20557;-64
2022/05/19 05:37:36;;;;;;;66.80;21.52;;;;;;;26.98;24.76;100954.59;4947622;28;20035;-62
2022/05/19 05:40:07;;;;;;;82.07;21.50;;;;;;;26.90;24.98;100954.81;4948657;29;20055;-63
2022/05/19 05:42:35;;;;;;;62.20;19.63;;;;;;;26.84;25.29;100948.75;4940269;28;20118;-63
2022/05/19 05:45:01;;;;;;;92.43;20.33;;;;;;;26.67;25.50;100947.22;4951935;28;20032;-62
2022/05/19 05:47:28;;;;;;;81.75;19.85;;;;;;;26.59;25.46;100945.50;4944803;29;20098;-62
2022/05/19 05:49:55;;;;;;;87.13;17.00;;;;;;;26.59;25.71;100945.50;4948939;28;20027;-63
2022/05/19 05:52:22;;;;;;;84.75;16.33;;;;;;;26.56;25.75;100940.63;4941161;28;20044;-62
2022/05/19 05:54:49;;;;;;;73.53;15.98;;;;;;;26.46;26.46;100947.63;4952767;29;20038;-63
2022/05/19 05:57:15;;;;;;;77.63;14.82;;;;;;;26.35;27.37;100945.75;4942979;29;20035;-63
2022/05/19 05:59:42;;;;;;;84.63;14.52;;;;;;;26.40;27.56;100939.94;4956303;28;20467;-62
2022/05/19 06:02:09;;;;;;;87.88;13.05;;;;;;;26.63;27.85;100937.19;4942923;28;20043;-63
2022/05/19 06:04:36;;;;;;;87.03;13.75;;;;;;;26.77;28.44;100934.69;4951390;28;20275;-65
2022/05/19 06:07:03;;;;;;;71.53;12.70;;;;;;;26.38;28.82;100934.69;4941375;29;20474;-62
2022/05/19 06:09:30;;;;;;;58.67;13.93;;;;;;;26.11;29.59;100936.50;4948477;28;20031;-64
2022/05/19 06:11:57;;;;;;;93.10;20.67;;;;;;;25.92;31.49;100936.47;4939882;29;20046;-64
2022/05/19 06:14:24;;;;;;;93.85;28.95;;;;;;;25.89;33.05;100946.34;4933932;28;20024;-64
2022/05/19 06:16:51;;;;;;;85.28;22.80;;;;;;;26.01;35.88;100948.19;4939377;29;20107;-62
2022/05/19 06:19:18;;;;;;;55.20;15.70;;;;;;;26.15;35.09;100939.34;4941646;29;20115;-62
2022/05/19 06:21:46;;;;;;;44.67;13.38;;;;;;;25.85;36.81;100939.06;4941858;29;20036;-63
2022/05/19 06:24:13;;;;;;;33.33;12.02;;;;;;;25.74;37.32;100943.59;4940733;29;20464;-62
2022/05/19 06:26:40;;;;;;;36.03;9.07;;;;;;;25.76;37.78;100952.41;4952482;29;20071;-63
2022/05/19 06:29:08;;;;;;;32.38;7.78;;;;;;;25.64;38.52;100950.50;4941614;29;20389;-63
2022/05/19 06:31:36;;;;;;;31.33;7.63;;;;;;;25.55;39.05;100942.34;4947115;28;20435;-63
2022/05/19 06:34:04;;;;;;;26.95;6.50;;;;;;;25.72;39.12;100951.50;4947646;29;20082;-64
2022/05/19 06:36:30;;;;;;;30.27;7.15;;;;;;;25.73;40.05;100942.78;4925544;29;20099;-62
2022/05/19 06:38:58;;;;;;;29.23;6.25;;;;;;;25.70;39.46;100940.75;4952032;28;20027;-66
2022/05/19 06:44:10;;;;;;;21.17;5.00;;;;;;;25.61;40.78;100942.88;4942309;29;20040;-64
2022/05/19 06:46:36;;;;;;;21.83;5.15;;;;;;;25.50;41.07;100939.84;4951636;29;20031;-65
2022/05/19 06:49:04;;;;;;;25.38;4.93;;;;;;;25.45;41.24;100948.44;4940764;29;20118;-64
2022/05/19 06:51:33;;;;;;;26.42;5.68;;;;;;;25.46;41.07;100944.50;4945854;28;20388;-64
2022/05/19 06:54:00;;;;;;;22.77;4.75;;;;;;;25.28;41.36;100943.25;4946775;29;20447;-64
2022/05/19 06:56:27;;;;;;;22.58;4.80;;;;;;;25.16;41.52;100935.81;4939855;28;20071;-64
2022/05/19 06:58:54;;;;;;;23.05;5.13;;;;;;;25.07;43.19;100942.69;4939079;29;20038;-66
2022/05/19 07:01:21;;;;;;;23.92;4.97;;;;;;;25.08;42.32;100947.09;4939084;28;20470;-63
2022/05/19 07:03:48;;;;;;;16.92;4.40;;;;;;;24.89;43.13;100942.19;4949107;28;20035;-64
2022/05/19 07:06:15;;;;;;;23.88;4.43;;;;;;;24.75;43.51;100942.59;4961831;28;20039;-62
2022/05/19 07:08:42;;;;;;;20.83;4.70;;;;;;;24.67;44.03;100944.41;4969709;28;20393;-62
2022/05/19 07:11:24;;;;;;;19.55;4.60;;;;;;;24.68;45.00;100939.66;4954716;28;20526;-62
2022/05/19 07:13:55;;;;;;;13.02;4.00;;;;;;;24.60;45.97;100935.88;4956275;28;20078;-63
2022/05/19 07:16:22;;;;;;;22.67;4.53;;;;;;;24.60;45.55;100935.88;4964741;28;20477;-63
2022/05/19 07:18:49;;;;;;;20.15;4.85;;;;;;;24.53;45.96;100941.22;4961769;28;20470;-63
2022/05/19 07:21:18;;;;;;;20.83;4.97;;;;;;;24.48;47.18;100937.88;4957027;28;20413;-62
2022/05/19 07:23:49;;;;;;;21.90;5.25;;;;;;;24.31;47.47;100928.69;4955976;28;20114;-64
2022/05/19 07:26:15;;;;;;;18.27;5.28;;;;;;;24.17;48.98;100939.34;4954642;28;20039;-62
2022/05/19 07:28:42;;;;;;;16.33;6.28;;;;;;;24.12;49.56;100936.81;4956532;28;20023;-62
2022/05/19 07:31:09;;;;;;;17.88;5.25;;;;;;;23.95;50.44;100937.91;4959210;28;20031;-64
2022/05/19 07:33:36;;;;;;;18.92;5.43;;;;;;;23.93;50.75;100939.41;4954270;28;20062;-64
2022/05/19 07:36:06;;;;;;;17.40;5.40;;;;;;;23.88;50.75;100947.94;4940349;29;20039;-63
2022/05/19 07:38:34;;;;;;;24.45;5.43;;;;;;;23.94;50.73;100955.72;4958123;28;20473;-64
2022/05/19 07:41:03;;;;;;;16.30;5.45;;;;;;;24.02;50.55;100959.50;4960067;28;20035;-63
2022/05/19 07:43:39;;;;;;;19.85;9.70;;;;;;;24.12;50.47;100953.47;4958839;28;20042;-63
2022/05/19 07:46:08;;;;;;;23.08;8.18;;;;;;;23.97;50.86;100946.69;4970252;28;20096;-64
2022/05/19 07:48:36;;;;;;;17.23;6.10;;;;;;;23.96;51.92;100944.25;4963376;28;20101;-63
2022/05/19 07:51:03;;;;;;;28.80;7.50;;;;;;;23.97;52.45;100940.31;4958563;28;20098;-62
2022/05/19 07:53:30;;;;;;;18.13;7.07;;;;;;;23.93;52.33;100943.00;4957258;28;20028;-63
2022/05/19 07:55:58;;;;;;;17.05;7.15;;;;;;;23.90;53.17;100954.00;4941301;28;20565;-63
2022/05/19 07:58:25;;;;;;;14.15;5.40;;;;;;;23.81;53.61;100941.03;4953486;28;20490;-63
2022/05/19 08:00:52;;;;;;;13.82;4.80;;;;;;;23.60;52.85;100936.78;4960531;28;20027;-64
2022/05/19 08:03:23;;;;;;;15.90;5.93;;;;;;;23.65;54.07;100940.13;4945106;28;20066;-64
2022/05/19 08:05:51;;;;;;;14.60;5.93;;;;;;;23.70;53.09;100933.53;4956525;28;20037;-64
2022/05/19 08:08:18;;;;;;;15.05;6.03;;;;;;;23.66;52.14;100930.63;4958570;28;20027;-64
2022/05/19 08:10:45;;;;;;;20.90;5.82;;;;;;;23.60;51.91;100928.44;4959067;28;20054;-62
2022/05/19 08:15:57;;;;;;;18.20;4.65;;;;;;;23.48;50.44;100926.44;4957667;28;20031;-62
2022/05/19 08:18:26;;;;;;;14.85;4.60;;;;;;;23.51;49.97;100928.53;4951211;28;20514;-62
2022/05/19 08:20:58;;;;;;;14.75;4.80;;;;;;;23.49;49.80;100934.41;4959997;28;20085;-63
2022/05/19 08:23:28;;;;;;;13.95;3.75;;;;;;;23.41;48.84;100926.22;4937228;29;20077;-64
2022/05/19 08:25:56;;;;;;;17.17;4.60;;;;;;;23.34;48.93;100929.59;4953983;28;20042;-63
2022/05/19 08:28:29;;;;;;;14.18;4.15;;;;;;;23.26;48.82;100926.91;4957748;28;20066;-62
2022/05/19 08:30:59;;;;;;;16.50;4.70;;;;;;;23.18;49.20;100917.56;4932486;29;20035;-63
2022/05/19 08:33:27;;;;;;;12.38;3.70;;;;;;;23.17;49.22;100913.97;4955509;28;20043;-64
2022/05/19 08:35:55;;;;;;;18.05;3.72;;;;;;;23.05;50.20;100913.94;4953681;28;20023;-64
2022/05/19 08:38:22;;;;;;;15.63;4.18;;;;;;;23.06;50.47;100912.78;4955869;28;20514;-65
2022/05/19 08:41:00;;;;;;;23.15;4.68;;;;;;;23.05;51.11;100907.59;4955709;28;20035;-64
2022/05/19 08:43:39;;;;;;;19.02;4.63;;;;;;;23.06;51.00;100910.03;4953126;28;20039;-64
2022/05/19 08:46:06;;;;;;;14.73;4.18;;;;;;;22.92;51.78;100901.22;4954722;28;20422;-64
2022/05/19 08:48:35;;;;;;;14.10;3.92;;;;;;;22.86;52.04;100902.59;4954891;28;20464;-64
2022/05/19 08:51:05;;;;;;;13.65;3.63;;;;;;;22.87;51.91;100893.13;4952316;28;20043;-63
2022/05/19 08:53:39;;;;;;;13.32;3.42;;;;;;;22.76;52.58;100903.00;4954460;28;20046;-65
2022/05/19 08:56:40;;;;;;;14.85;3.63;;;;;;;22.76;52.27;100900.22;4952689;28;20494;-64
2022/05/19 08:59:28;;;;;;;11.18;3.58;;;;;;;22.67;52.49;100892.03;4954060;28;20042;-63
2022/05/19 09:02:01;;;;;;;16.15;4.03;;;;;;;22.61;52.37;100891.41;4953553;28;20027;-62
2022/05/19 09:04:52;;;;;;;14.75;3.90;;;;;;;22.61;52.61;100890.59;4952576;28;20430;-63
2022/05/19 09:10:16;;;;;;;13.93;3.28;;;;;;;22.53;54.05;100889.53;4955783;28;20047;-63
2022/05/19 09:12:47;;;;;;;21.08;4.05;;;;;;;22.47;54.71;100885.38;4941238;28;20046;-63
2022/05/19 09:15:14;;;;;;;19.52;3.92;;;;;;;22.48;55.40;100887.00;4970729;28;20039;-63
2022/05/19 09:17:44;;;;;;;16.83;4.28;;;;;;;22.49;56.04;100888.63;4948298;28;20082;-63
2022/05/19 09:20:16;;;;;;;11.52;4.00;;;;;;;22.53;57.56;100883.19;4959303;28;20848;-63
2022/05/19 09:22:42;;;;;;;14.55;3.95;;;;;;;22.46;57.12;100880.19;4961134;28;20482;-64
2022/05/19 09:25:13;;;;;;;16.10;4.25;;;;;;;22.46;58.60;100877.41;4941174;28;20027;-64
2022/05/19 09:27:47;;;;;;;15.77;4.22;;;;;;;22.41;60.39;100881.19;4957907;28;20118;-62
2022/05/19 09:30:48;;;;;;;14.15;4.90;;;;;;;22.23;61.11;100875.00;4957579;28;20035;-63
2022/05/19 09:33:18;;;;;;;14.63;4.43;;;;;;;22.19;63.05;100876.03;4956702;28;20031;-64
2022/05/19 09:35:55;;;;;;;14.13;5.00;;;;;;;22.16;64.33;100871.19;4955426;28;20118;-63
2022/05/19 09:38:29;;;;;;;35.20;6.03;;;;;;;22.14;65.50;100877.06;4957646;28;20031;-63
2022/05/19 09:41:02;;;;;;;20.88;5.00;;;;;;;22.09;66.55;100879.22;4959112;28;20038;-62
2022/05/19 09:43:33;;;;;;;18.67;5.28;;;;;;;22.14;67.72;100879.00;4968160;28;20031;-62
2022/05/19 09:46:14;;;;;;;22.02;6.10;;;;;;;22.09;68.32;100879.22;4968788;28;20073;-64
2022/05/19 09:48:45;;;;;;;17.75;6.18;;;;;;;22.02;69.37;100871.41;4959820;28;20065;-62
2022/05/19 09:51:15;;;;;;;18.02;6.53;;;;;;;22.01;69.74;100873.38;4937544;29;20089;-63
2022/05/19 09:53:52;;;;;;;23.65;6.40;;;;;;;21.95;70.46;100866.44;4966244;28;20112;-64
2022/05/19 09:56:22;;;;;;;19.35;6.53;;;;;;;21.94;70.96;100867.59;4961407;28;20039;-63
2022/05/19 09:58:53;;;;;;;21.48;7.13;;;;;;;21.88;72.13;100868.09;4969105;28;20150;-62
2022/05/19 10:01:28;;;;;;;23.77;12.05;;;;;;;21.85;72.63;100868.78;4968930;28;20036;-62
2022/05/19 10:03:58;;;;;;;;;;;;;;;21.78;73.18;100872.09;4968065;28;20050;-62
2022/05/19 10:06:39;;;;;;;18.35;8.60;;;;;;;21.69;74.44;100871.34;4960474;28;19926;-62
2022/05/19 10:09:15;;;;;;;23.90;7.65;;;;;;;21.65;74.73;100870.41;4947071;28;20065;-63
2022/05/19 10:11:54;;;;;;;21.33;8.38;;;;;;;21.64;75.00;100875.13;4965218;28;20039;-62
2022/05/19 10:14:28;;;;;;;22.27;7.47;;;;;;;21.58;76.42;100870.13;4971304;28;20039;-61
2022/05/19 10:17:01;;;;;;;22.02;6.85;;;;;;;21.51;76.83;100875.34;4943913;28;20031;-62
2022/05/19 10:19:46;;;;;;;19.73;6.53;;;;;;;21.48;76.41;100871.31;4967834;28;20512;-62
2022/05/19 10:22:42;;;;;;;18.45;6.00;;;;;;;21.49;76.70;100874.88;4961425;28;20044;-62
2022/05/19 10:25:37;;;;;;;17.38;5.38;;;;;;;21.41;77.52;100880.13;4954138;28;20047;-61
2022/05/19 10:31:37;;;;;;;21.75;7.78;;;;;;;21.29;78.76;100874.50;4946079;28;20532;-62
2022/05/19 10:34:22;;;;;;;23.90;9.70;;;;;;;21.23;79.07;100872.25;4962150;28;20043;-61
2022/05/19 10:37:04;;;;;;;20.38;7.45;;;;;;;21.27;79.48;100876.78;4971706;28;20051;-62
2022/05/19 10:39:58;;;;;;;21.42;7.32;;;;;;;21.22;79.19;100887.22;4958837;28;20033;-62
2022/05/19 10:42:43;;;;;;;25.48;9.65;;;;;;;21.15;79.59;100884.13;4971317;28;20031;-62
2022/05/19 10:45:21;;;;;;;29.55;12.35;;;;;;;21.12;79.66;100891.13;4947535;28;20401;-62
2022/05/19 10:48:09;;;;;;;28.05;10.93;;;;;;;21.04;79.97;100892.81;4964188;28;20036;-62
2022/05/19 10:50:38;;;;;;;24.50;8.25;;;;;;;20.97;80.09;100897.22;4971629;28;20065;-62
2022/05/19 10:53:17;;;;;;;22.13;7.43;;;;;;;20.96;80.26;100888.09;4960445;28;20023;-62
2022/05/19 10:55:53;;;;;;;20.33;6.80;;;;;;;20.93;80.36;100893.50;4947558;29;20070;-63
2022/05/19 10:58:40;;;;;;;23.55;6.60;;;;;;;20.89;80.27;100890.59;4970245;28;20035;-62
2022/05/19 11:01:19;;;;;;;21.17;6.85;;;;;;;20.90;79.58;100888.63;4946641;28;20035;-62
2022/05/19 11:04:23;;;;;;;22.60;6.22;;;;;;;20.84;79.98;100889.97;4963788;28;20043;-62
2022/05/19 11:07:11;;;;;;;21.77;6.57;;;;;;;20.85;79.81;100888.81;4970950;28;20126;-62
2022/05/19 11:10:02;;;;;;;20.95;6.18;;;;;;;20.83;79.46;100889.16;4964518;28;20540;-63
2022/05/19 11:12:52;;;;;;;19.65;6.57;;;;;;;20.74;79.61;100891.91;4958579;28;20438;-61
2022/05/19 11:15:30;;;;;;;18.88;6.30;;;;;;;20.70;79.84;100890.16;4967977;28;20043;-62
2022/05/19 11:18:01;;;;;;;23.63;7.38;;;;;;;20.61;80.06;100895.69;4963669;28;20469;-62
2022/05/19 11:20:39;;;;;;;21.65;6.28;;;;;;;20.59;79.93;100891.63;4964745;28;20121;-63
2022/05/19 11:23:18;;;;;;;29.65;6.78;;;;;;;20.49;80.81;100895.56;4951033;28;20043;-62
2022/05/19 11:28:45;;;;;;;20.67;6.13;;;;;;;20.52;80.09;100894.91;4960263;28;20037;-62
2022/05/19 11:31:15;;;;;;;19.08;5.28;;;;;;;20.43;80.35;100885.81;4968510;28;20035;-62
2022/05/19 11:33:50;;;;;;;24.40;6.05;;;;;;;20.32;80.23;100890.84;4964627;28;20540;-63
2022/05/19 11:36:46;;;;;;;19.55;5.70;;;;;;;20.28;80.20;100892.59;4959947;28;20046;-63
2022/05/19 11:39:20;;;;;;;;;;;;;;;20.23;80.59;100888.06;4946169;28;20062;-62
2022/05/19 11:41:50;;;;;;;20.85;6.22;;;;;;;20.20;80.68;100891.47;4963380;28;19928;-63
2022/05/19 11:44:31;;;;;;;20.83;5.22;;;;;;;20.13;80.83;100888.41;4969127;28;20027;-61
2022/05/19 11:55:12;;;;;;;17.83;5.70;;;;;;;20.13;80.23;100882.88;4943320;28;20401;-62
2022/05/19 11:55:49;;;;;;;26.42;10.02;;;;;;;20.07;80.07;100875.09;4963115;28;20094;-63
2022/05/19 11:58:22;;;;;;;33.65;28.73;;;;;;;19.97;80.18;100883.69;4968743;28;20030;-60